sensor_id;sensor_type;location;lat;lon;timestamp;temperature;humidity
70271;SHT31;57680;54.292;18.598;2023-08-06T00:02:18;16.22;96.07
70271;SHT31;57680;54.292;18.598;2023-08-06T00:04:43;16.35;95.65
70271;SHT31;57680;54.292;18.598;2023-08-06T00:07:08;16.45;95.26
70271;SHT31;57680;54.292;18.598;2023-08-06T00:09:34;16.59;94.78
70271;SHT31;57680;54.292;18.598;2023-08-06T00:11:59;16.62;94.69
70271;SHT31;57680;54.292;18.598;2023-08-06T00:14:24;16.64;94.51
70271;SHT31;57680;54.292;18.598;2023-08-06T00:16:50;16.56;94.16
70271;SHT31;57680;54.292;18.598;2023-08-06T00:19:15;16.51;94.35
70271;SHT31;57680;54.292;18.598;2023-08-06T00:21:40;16.49;94.89
70271;SHT31;57680;54.292;18.598;2023-08-06T00:24:06;16.51;95.43
70271;SHT31;57680;54.292;18.598;2023-08-06T00:26:31;16.53;95.78
70271;SHT31;57680;54.292;18.598;2023-08-06T00:28:56;16.59;95.84
70271;SHT31;57680;54.292;18.598;2023-08-06T00:31:22;16.55;96.15
70271;SHT31;57680;54.292;18.598;2023-08-06T00:33:47;16.57;96.37
70271;SHT31;57680;54.292;18.598;2023-08-06T00:36:12;16.53;96.26
70271;SHT31;57680;54.292;18.598;2023-08-06T00:38:38;16.56;95.94
70271;SHT31;57680;54.292;18.598;2023-08-06T00:41:03;16.51;96.37
70271;SHT31;57680;54.292;18.598;2023-08-06T00:43:29;16.49;96.75
70271;SHT31;57680;54.292;18.598;2023-08-06T00:45:55;16.49;96.78
70271;SHT31;57680;54.292;18.598;2023-08-06T00:48:21;16.48;96.32
70271;SHT31;57680;54.292;18.598;2023-08-06T00:50:46;16.48;96.10
70271;SHT31;57680;54.292;18.598;2023-08-06T00:53:12;16.51;95.33
70271;SHT31;57680;54.292;18.598;2023-08-06T00:55:38;16.48;94.90
70271;SHT31;57680;54.292;18.598;2023-08-06T00:58:03;16.51;94.80
70271;SHT31;57680;54.292;18.598;2023-08-06T01:00:29;16.53;94.67
70271;SHT31;57680;54.292;18.598;2023-08-06T01:02:54;16.53;94.88
70271;SHT31;57680;54.292;18.598;2023-08-06T01:05:20;16.55;94.81
70271;SHT31;57680;54.292;18.598;2023-08-06T01:13:37;16.60;94.44
70271;SHT31;57680;54.292;18.598;2023-08-06T01:16:05;16.60;94.23
70271;SHT31;57680;54.292;18.598;2023-08-06T01:18:31;16.56;93.94
70271;SHT31;57680;54.292;18.598;2023-08-06T01:20:56;16.59;93.45
70271;SHT31;57680;54.292;18.598;2023-08-06T01:23:22;16.55;93.51
70271;SHT31;57680;54.292;18.598;2023-08-06T01:28:30;16.53;93.39
70271;SHT31;57680;54.292;18.598;2023-08-06T01:30:59;16.62;92.88
70271;SHT31;57680;54.292;18.598;2023-08-06T01:33:27;16.56;93.06
70271;SHT31;57680;54.292;18.598;2023-08-06T01:35:55;16.60;92.59
70271;SHT31;57680;54.292;18.598;2023-08-06T01:38:21;16.60;92.93
70271;SHT31;57680;54.292;18.598;2023-08-06T01:40:46;16.57;93.26
70271;SHT31;57680;54.292;18.598;2023-08-06T01:43:11;16.57;93.52
70271;SHT31;57680;54.292;18.598;2023-08-06T01:45:37;16.56;93.61
70271;SHT31;57680;54.292;18.598;2023-08-06T01:48:02;16.53;93.54
70271;SHT31;57680;54.292;18.598;2023-08-06T01:50:28;16.53;93.63
70271;SHT31;57680;54.292;18.598;2023-08-06T01:52:53;16.48;93.59
70271;SHT31;57680;54.292;18.598;2023-08-06T01:55:18;16.43;93.19
70271;SHT31;57680;54.292;18.598;2023-08-06T01:57:43;16.29;93.58
70271;SHT31;57680;54.292;18.598;2023-08-06T02:00:09;16.22;93.68
70271;SHT31;57680;54.292;18.598;2023-08-06T02:02:35;16.09;94.34
70271;SHT31;57680;54.292;18.598;2023-08-06T02:05:00;16.00;95.21
70271;SHT31;57680;54.292;18.598;2023-08-06T02:07:25;15.97;95.43
70271;SHT31;57680;54.292;18.598;2023-08-06T02:09:51;15.94;95.31
70271;SHT31;57680;54.292;18.598;2023-08-06T02:12:16;15.87;95.80
70271;SHT31;57680;54.292;18.598;2023-08-06T02:14:41;15.82;96.09
70271;SHT31;57680;54.292;18.598;2023-08-06T02:17:06;15.78;96.80
70271;SHT31;57680;54.292;18.598;2023-08-06T02:19:32;15.71;97.35
70271;SHT31;57680;54.292;18.598;2023-08-06T02:21:57;15.68;97.77
70271;SHT31;57680;54.292;18.598;2023-08-06T02:24:22;15.68;98.16
70271;SHT31;57680;54.292;18.598;2023-08-06T02:26:48;15.60;98.71
70271;SHT31;57680;54.292;18.598;2023-08-06T02:29:13;15.53;99.20
70271;SHT31;57680;54.292;18.598;2023-08-06T02:31:38;15.51;99.25
70271;SHT31;57680;54.292;18.598;2023-08-06T02:34:03;15.47;99.34
70271;SHT31;57680;54.292;18.598;2023-08-06T02:36:29;15.43;99.63
70271;SHT31;57680;54.292;18.598;2023-08-06T02:38:55;15.43;99.52
70271;SHT31;57680;54.292;18.598;2023-08-06T02:41:20;15.36;99.90
70271;SHT31;57680;54.292;18.598;2023-08-06T02:43:45;15.39;99.81
70271;SHT31;57680;54.292;18.598;2023-08-06T02:46:10;15.33;99.99
70271;SHT31;57680;54.292;18.598;2023-08-06T02:48:36;15.33;99.99
70271;SHT31;57680;54.292;18.598;2023-08-06T02:51:01;15.34;99.99
70271;SHT31;57680;54.292;18.598;2023-08-06T02:53:27;15.33;99.99
70271;SHT31;57680;54.292;18.598;2023-08-06T02:55:52;15.33;99.99
70271;SHT31;57680;54.292;18.598;2023-08-06T02:58:17;15.34;99.99
70271;SHT31;57680;54.292;18.598;2023-08-06T06:47:24;17.39;99.99
70271;SHT31;57680;54.292;18.598;2023-08-06T08:09:34;18.33;99.99
70271;SHT31;57680;54.292;18.598;2023-08-06T08:12:00;18.29;99.99
70271;SHT31;57680;54.292;18.598;2023-08-06T08:14:25;18.29;99.99
70271;SHT31;57680;54.292;18.598;2023-08-06T08:16:51;18.31;99.99
70271;SHT31;57680;54.292;18.598;2023-08-06T08:19:16;18.30;99.99
70271;SHT31;57680;54.292;18.598;2023-08-06T08:21:42;18.30;99.99
70271;SHT31;57680;54.292;18.598;2023-08-06T08:24:08;18.23;99.99
70271;SHT31;57680;54.292;18.598;2023-08-06T08:26:33;18.27;99.99
70271;SHT31;57680;54.292;18.598;2023-08-06T08:28:58;18.27;99.99
70271;SHT31;57680;54.292;18.598;2023-08-06T08:31:24;18.29;99.99
70271;SHT31;57680;54.292;18.598;2023-08-06T08:33:49;18.29;99.99
70271;SHT31;57680;54.292;18.598;2023-08-06T08:36:14;18.34;99.99
70271;SHT31;57680;54.292;18.598;2023-08-06T08:38:40;18.41;99.99
70271;SHT31;57680;54.292;18.598;2023-08-06T08:41:05;18.40;99.99
70271;SHT31;57680;54.292;18.598;2023-08-06T08:43:35;18.40;99.99
70271;SHT31;57680;54.292;18.598;2023-08-06T08:46:01;18.43;99.99
70271;SHT31;57680;54.292;18.598;2023-08-06T08:48:29;18.43;99.99
70271;SHT31;57680;54.292;18.598;2023-08-06T08:50:55;18.44;99.99
70271;SHT31;57680;54.292;18.598;2023-08-06T08:53:21;18.43;99.99
70271;SHT31;57680;54.292;18.598;2023-08-06T08:55:48;18.44;99.99
70271;SHT31;57680;54.292;18.598;2023-08-06T08:58:15;18.44;99.99
70271;SHT31;57680;54.292;18.598;2023-08-06T09:00:42;18.50;99.99
70271;SHT31;57680;54.292;18.598;2023-08-06T09:03:07;18.47;99.99
70271;SHT31;57680;54.292;18.598;2023-08-06T09:05:33;18.44;99.99
70271;SHT31;57680;54.292;18.598;2023-08-06T09:08:02;18.44;99.99
70271;SHT31;57680;54.292;18.598;2023-08-06T09:10:28;18.47;99.99
70271;SHT31;57680;54.292;18.598;2023-08-06T09:12:55;18.54;99.99
70271;SHT31;57680;54.292;18.598;2023-08-06T09:15:24;18.57;99.99
70271;SHT31;57680;54.292;18.598;2023-08-06T09:17:49;18.57;99.99
70271;SHT31;57680;54.292;18.598;2023-08-06T09:20:15;18.62;99.99
70271;SHT31;57680;54.292;18.598;2023-08-06T09:22:41;18.71;99.99
70271;SHT31;57680;54.292;18.598;2023-08-06T09:25:07;18.91;99.99
70271;SHT31;57680;54.292;18.598;2023-08-06T09:27:32;18.99;99.99
70271;SHT31;57680;54.292;18.598;2023-08-06T09:29:58;19.02;99.99
70271;SHT31;57680;54.292;18.598;2023-08-06T09:32:23;18.98;99.99
70271;SHT31;57680;54.292;18.598;2023-08-06T09:34:55;18.95;99.99
70271;SHT31;57680;54.292;18.598;2023-08-06T09:37:21;18.94;99.99
70271;SHT31;57680;54.292;18.598;2023-08-06T09:39:46;18.92;99.99
70271;SHT31;57680;54.292;18.598;2023-08-06T09:42:15;18.95;99.99
70271;SHT31;57680;54.292;18.598;2023-08-06T09:44:40;18.89;99.99
70271;SHT31;57680;54.292;18.598;2023-08-06T09:47:06;18.88;99.99
70271;SHT31;57680;54.292;18.598;2023-08-06T09:51:57;18.92;99.99
70271;SHT31;57680;54.292;18.598;2023-08-06T09:54:23;18.89;99.99
70271;SHT31;57680;54.292;18.598;2023-08-06T09:56:49;18.91;99.99
70271;SHT31;57680;54.292;18.598;2023-08-06T09:59:39;18.95;99.99
70271;SHT31;57680;54.292;18.598;2023-08-06T10:02:12;18.98;99.99
70271;SHT31;57680;54.292;18.598;2023-08-06T10:04:38;19.01;99.99
70271;SHT31;57680;54.292;18.598;2023-08-06T10:07:04;19.08;99.99
70271;SHT31;57680;54.292;18.598;2023-08-06T10:09:29;19.05;99.99
70271;SHT31;57680;54.292;18.598;2023-08-06T10:11:56;19.05;99.99
70271;SHT31;57680;54.292;18.598;2023-08-06T10:14:26;19.08;99.99
70271;SHT31;57680;54.292;18.598;2023-08-06T10:16:53;19.06;99.99
70271;SHT31;57680;54.292;18.598;2023-08-06T10:19:19;19.11;99.99
70271;SHT31;57680;54.292;18.598;2023-08-06T10:22:14;19.12;99.99
70271;SHT31;57680;54.292;18.598;2023-08-06T10:24:50;19.13;99.99
70271;SHT31;57680;54.292;18.598;2023-08-06T10:27:35;19.12;99.99
70271;SHT31;57680;54.292;18.598;2023-08-06T10:30:29;19.08;99.99
70271;SHT31;57680;54.292;18.598;2023-08-06T10:32:59;19.20;99.99
70271;SHT31;57680;54.292;18.598;2023-08-06T10:35:38;19.22;99.99
70271;SHT31;57680;54.292;18.598;2023-08-06T10:38:12;19.23;99.99
70271;SHT31;57680;54.292;18.598;2023-08-06T10:41:02;19.30;99.99
70271;SHT31;57680;54.292;18.598;2023-08-06T10:45:58;19.60;99.99
70271;SHT31;57680;54.292;18.598;2023-08-06T10:48:37;20.04;99.99
70271;SHT31;57680;54.292;18.598;2023-08-06T10:51:04;20.36;99.99
70271;SHT31;57680;54.292;18.598;2023-08-06T10:53:29;20.51;99.99
70271;SHT31;57680;54.292;18.598;2023-08-06T10:55:54;20.59;99.99
70271;SHT31;57680;54.292;18.598;2023-08-06T10:58:20;20.76;99.99
70271;SHT31;57680;54.292;18.598;2023-08-06T11:00:46;20.93;99.99
70271;SHT31;57680;54.292;18.598;2023-08-06T11:03:11;20.87;99.99
70271;SHT31;57680;54.292;18.598;2023-08-06T11:05:36;20.90;99.99
70271;SHT31;57680;54.292;18.598;2023-08-06T11:08:02;20.75;99.91
70271;SHT31;57680;54.292;18.598;2023-08-06T11:10:27;20.60;99.99
70271;SHT31;57680;54.292;18.598;2023-08-06T11:12:53;20.53;99.99
70271;SHT31;57680;54.292;18.598;2023-08-06T11:15:20;20.53;99.99
70271;SHT31;57680;54.292;18.598;2023-08-06T11:17:46;20.55;99.99
70271;SHT31;57680;54.292;18.598;2023-08-06T11:20:11;20.59;99.99
70271;SHT31;57680;54.292;18.598;2023-08-06T11:22:37;20.68;99.99
70271;SHT31;57680;54.292;18.598;2023-08-06T11:25:03;20.80;99.99
70271;SHT31;57680;54.292;18.598;2023-08-06T11:27:28;20.84;99.99
70271;SHT31;57680;54.292;18.598;2023-08-06T11:29:54;20.69;99.99
70271;SHT31;57680;54.292;18.598;2023-08-06T11:32:19;20.62;99.99
70271;SHT31;57680;54.292;18.598;2023-08-06T11:34:45;20.66;99.99
70271;SHT31;57680;54.292;18.598;2023-08-06T11:37:10;20.69;99.99
70271;SHT31;57680;54.292;18.598;2023-08-06T11:39:36;20.66;99.99
70271;SHT31;57680;54.292;18.598;2023-08-06T11:42:03;20.62;99.99
70271;SHT31;57680;54.292;18.598;2023-08-06T11:44:34;20.75;99.99
70271;SHT31;57680;54.292;18.598;2023-08-06T11:47:01;21.00;99.99
70271;SHT31;57680;54.292;18.598;2023-08-06T11:49:43;21.37;99.99
70271;SHT31;57680;54.292;18.598;2023-08-06T11:54:40;21.65;99.80
70271;SHT31;57680;54.292;18.598;2023-08-06T11:57:06;21.75;99.99
70271;SHT31;57680;54.292;18.598;2023-08-06T11:59:31;21.77;99.77
70271;SHT31;57680;54.292;18.598;2023-08-06T12:01:57;21.72;99.26
70271;SHT31;57680;54.292;18.598;2023-08-06T12:04:22;21.86;99.61
70271;SHT31;57680;54.292;18.598;2023-08-06T12:06:47;21.93;99.99
70271;SHT31;57680;54.292;18.598;2023-08-06T12:09:13;21.93;99.39
70271;SHT31;57680;54.292;18.598;2023-08-06T12:11:38;21.85;99.06
70271;SHT31;57680;54.292;18.598;2023-08-06T12:14:03;21.90;99.28
70271;SHT31;57680;54.292;18.598;2023-08-06T12:16:29;22.02;99.06
70271;SHT31;57680;54.292;18.598;2023-08-06T12:18:54;21.86;98.49
70271;SHT31;57680;54.292;18.598;2023-08-06T12:21:19;21.93;99.07
70271;SHT31;57680;54.292;18.598;2023-08-06T12:23:45;21.77;98.06
70271;SHT31;57680;54.292;18.598;2023-08-06T12:26:10;21.66;98.80
70271;SHT31;57680;54.292;18.598;2023-08-06T12:28:35;21.85;98.83
70271;SHT31;57680;54.292;18.598;2023-08-06T12:31:01;21.95;99.09
70271;SHT31;57680;54.292;18.598;2023-08-06T12:33:26;21.96;98.94
70271;SHT31;57680;54.292;18.598;2023-08-06T12:35:51;21.90;99.01
70271;SHT31;57680;54.292;18.598;2023-08-06T12:38:17;21.93;99.55
70271;SHT31;57680;54.292;18.598;2023-08-06T12:40:42;21.95;98.18
70271;SHT31;57680;54.292;18.598;2023-08-06T12:43:07;22.10;99.09
70271;SHT31;57680;54.292;18.598;2023-08-06T12:45:33;22.53;99.87
70271;SHT31;57680;54.292;18.598;2023-08-06T12:47:58;22.44;98.19
70271;SHT31;57680;54.292;18.598;2023-08-06T12:50:23;22.26;98.34
70271;SHT31;57680;54.292;18.598;2023-08-06T12:52:49;22.17;98.29
70271;SHT31;57680;54.292;18.598;2023-08-06T12:55:14;22.22;98.67
70271;SHT31;57680;54.292;18.598;2023-08-06T12:57:39;22.22;98.12
70271;SHT31;57680;54.292;18.598;2023-08-06T13:00:05;22.16;98.20
70271;SHT31;57680;54.292;18.598;2023-08-06T13:02:31;22.19;98.72
70271;SHT31;57680;54.292;18.598;2023-08-06T13:04:56;22.28;99.02
70271;SHT31;57680;54.292;18.598;2023-08-06T13:07:21;22.28;97.30
70271;SHT31;57680;54.292;18.598;2023-08-06T13:09:47;22.20;98.58
70271;SHT31;57680;54.292;18.598;2023-08-06T13:12:12;22.09;97.45
70271;SHT31;57680;54.292;18.598;2023-08-06T13:14:37;22.12;98.92
70271;SHT31;57680;54.292;18.598;2023-08-06T13:17:03;22.12;98.59
70271;SHT31;57680;54.292;18.598;2023-08-06T13:19:28;22.14;98.46
70271;SHT31;57680;54.292;18.598;2023-08-06T13:22:00;22.32;99.16
70271;SHT31;57680;54.292;18.598;2023-08-06T13:24:26;22.26;97.71
70271;SHT31;57680;54.292;18.598;2023-08-06T13:26:51;22.24;97.32
70271;SHT31;57680;54.292;18.598;2023-08-06T13:29:17;22.35;99.16
70271;SHT31;57680;54.292;18.598;2023-08-06T13:31:42;22.35;97.45
70271;SHT31;57680;54.292;18.598;2023-08-06T13:34:07;22.41;98.52
70271;SHT31;57680;54.292;18.598;2023-08-06T13:36:33;22.30;97.81
70271;SHT31;57680;54.292;18.598;2023-08-06T13:38:58;22.30;97.64
70271;SHT31;57680;54.292;18.598;2023-08-06T13:41:23;22.43;98.51
70271;SHT31;57680;54.292;18.598;2023-08-06T13:43:49;22.50;98.44
70271;SHT31;57680;54.292;18.598;2023-08-06T13:46:14;22.60;98.26
70271;SHT31;57680;54.292;18.598;2023-08-06T13:48:40;22.51;96.78
70271;SHT31;57680;54.292;18.598;2023-08-06T13:51:05;22.53;97.85
70271;SHT31;57680;54.292;18.598;2023-08-06T13:53:31;22.53;97.57
70271;SHT31;57680;54.292;18.598;2023-08-06T13:55:56;22.71;97.39
70271;SHT31;57680;54.292;18.598;2023-08-06T13:58:21;22.87;96.29
70271;SHT31;57680;54.292;18.598;2023-08-06T14:00:47;22.74;96.41
70271;SHT31;57680;54.292;18.598;2023-08-06T14:03:12;22.80;97.45
70271;SHT31;57680;54.292;18.598;2023-08-06T14:05:37;22.86;97.10
70271;SHT31;57680;54.292;18.598;2023-08-06T14:08:03;22.86;95.23
70271;SHT31;57680;54.292;18.598;2023-08-06T14:10:28;22.78;97.81
70271;SHT31;57680;54.292;18.598;2023-08-06T14:12:53;22.90;98.57
70271;SHT31;57680;54.292;18.598;2023-08-06T14:15:19;22.84;98.60
70271;SHT31;57680;54.292;18.598;2023-08-06T14:17:44;22.65;96.87
70271;SHT31;57680;54.292;18.598;2023-08-06T14:20:10;22.39;96.32
70271;SHT31;57680;54.292;18.598;2023-08-06T14:22:35;22.32;96.83
70271;SHT31;57680;54.292;18.598;2023-08-06T14:25:00;22.28;97.80
70271;SHT31;57680;54.292;18.598;2023-08-06T14:27:26;22.23;97.81
70271;SHT31;57680;54.292;18.598;2023-08-06T14:29:51;22.13;98.35
70271;SHT31;57680;54.292;18.598;2023-08-06T14:32:17;22.09;98.01
70271;SHT31;57680;54.292;18.598;2023-08-06T14:34:42;22.03;97.52
70271;SHT31;57680;54.292;18.598;2023-08-06T14:37:07;22.09;96.25
70271;SHT31;57680;54.292;18.598;2023-08-06T14:39:33;22.03;95.24
70271;SHT31;57680;54.292;18.598;2023-08-06T14:41:58;22.06;94.87
70271;SHT31;57680;54.292;18.598;2023-08-06T14:44:23;22.09;94.51
70271;SHT31;57680;54.292;18.598;2023-08-06T14:46:49;22.08;94.57
70271;SHT31;57680;54.292;18.598;2023-08-06T14:49:14;22.06;93.96
70271;SHT31;57680;54.292;18.598;2023-08-06T14:51:39;21.99;93.53
70271;SHT31;57680;54.292;18.598;2023-08-06T14:54:05;21.93;93.32
70271;SHT31;57680;54.292;18.598;2023-08-06T14:56:30;21.85;93.90
70271;SHT31;57680;54.292;18.598;2023-08-06T14:58:55;21.75;93.52
70271;SHT31;57680;54.292;18.598;2023-08-06T15:01:21;21.71;93.67
70271;SHT31;57680;54.292;18.598;2023-08-06T15:03:46;21.62;94.23
70271;SHT31;57680;54.292;18.598;2023-08-06T15:06:12;21.65;94.70
70271;SHT31;57680;54.292;18.598;2023-08-06T15:08:37;21.68;94.87
70271;SHT31;57680;54.292;18.598;2023-08-06T15:11:02;21.71;94.61
70271;SHT31;57680;54.292;18.598;2023-08-06T15:13:29;21.78;94.45
70271;SHT31;57680;54.292;18.598;2023-08-06T15:15:54;21.82;94.21
70271;SHT31;57680;54.292;18.598;2023-08-06T15:18:20;21.92;94.44
70271;SHT31;57680;54.292;18.598;2023-08-06T15:20:45;21.90;94.35
70271;SHT31;57680;54.292;18.598;2023-08-06T15:23:10;21.88;94.50
70271;SHT31;57680;54.292;18.598;2023-08-06T15:25:36;21.83;94.47
70271;SHT31;57680;54.292;18.598;2023-08-06T15:28:01;21.79;94.36
70271;SHT31;57680;54.292;18.598;2023-08-06T15:30:26;21.74;94.39
70271;SHT31;57680;54.292;18.598;2023-08-06T15:32:52;21.66;94.58
70271;SHT31;57680;54.292;18.598;2023-08-06T15:35:17;21.61;94.67
70271;SHT31;57680;54.292;18.598;2023-08-06T15:37:42;21.51;94.58
70271;SHT31;57680;54.292;18.598;2023-08-06T15:40:08;21.51;94.77
70271;SHT31;57680;54.292;18.598;2023-08-06T15:42:34;21.48;94.84
70271;SHT31;57680;54.292;18.598;2023-08-06T15:45:00;21.47;94.62
70271;SHT31;57680;54.292;18.598;2023-08-06T15:47:25;21.48;94.58
70271;SHT31;57680;54.292;18.598;2023-08-06T15:49:51;21.47;94.67
70271;SHT31;57680;54.292;18.598;2023-08-06T15:52:16;21.47;94.81
70271;SHT31;57680;54.292;18.598;2023-08-06T15:54:41;21.44;94.93
70271;SHT31;57680;54.292;18.598;2023-08-06T15:57:07;21.44;95.13
70271;SHT31;57680;54.292;18.598;2023-08-06T15:59:32;21.42;95.52
70271;SHT31;57680;54.292;18.598;2023-08-06T16:01:59;21.40;95.94
70271;SHT31;57680;54.292;18.598;2023-08-06T16:04:28;21.37;95.93
70271;SHT31;57680;54.292;18.598;2023-08-06T16:06:54;21.32;96.02
70271;SHT31;57680;54.292;18.598;2023-08-06T16:09:20;21.28;96.25
70271;SHT31;57680;54.292;18.598;2023-08-06T16:11:45;21.21;96.47
70271;SHT31;57680;54.292;18.598;2023-08-06T16:14:10;21.15;96.74
70271;SHT31;57680;54.292;18.598;2023-08-06T16:16:36;21.10;96.83
70271;SHT31;57680;54.292;18.598;2023-08-06T16:19:02;21.06;97.00
70271;SHT31;57680;54.292;18.598;2023-08-06T16:21:28;21.01;97.21
70271;SHT31;57680;54.292;18.598;2023-08-06T16:23:53;20.97;97.33
70271;SHT31;57680;54.292;18.598;2023-08-06T16:26:18;21.00;97.00
70271;SHT31;57680;54.292;18.598;2023-08-06T16:28:44;21.01;97.15
70271;SHT31;57680;54.292;18.598;2023-08-06T16:31:09;21.07;97.05
70271;SHT31;57680;54.292;18.598;2023-08-06T16:33:34;21.07;97.13
70271;SHT31;57680;54.292;18.598;2023-08-06T16:36:00;21.10;97.18
70271;SHT31;57680;54.292;18.598;2023-08-06T16:38:25;21.08;97.19
70271;SHT31;57680;54.292;18.598;2023-08-06T16:40:54;21.07;97.20
70271;SHT31;57680;54.292;18.598;2023-08-06T16:46:21;21.03;97.04
70271;SHT31;57680;54.292;18.598;2023-08-06T16:49:17;20.96;95.54
70271;SHT31;57680;54.292;18.598;2023-08-06T16:51:43;21.07;96.04
70271;SHT31;57680;54.292;18.598;2023-08-06T16:54:08;21.14;96.10
70271;SHT31;57680;54.292;18.598;2023-08-06T16:56:34;21.24;95.82
70271;SHT31;57680;54.292;18.598;2023-08-06T16:59:00;21.23;95.77
70271;SHT31;57680;54.292;18.598;2023-08-06T17:01:26;21.24;95.69
70271;SHT31;57680;54.292;18.598;2023-08-06T17:03:51;21.11;95.17
70271;SHT31;57680;54.292;18.598;2023-08-06T17:06:16;20.97;95.14
70271;SHT31;57680;54.292;18.598;2023-08-06T17:08:42;20.93;94.02
70271;SHT31;57680;54.292;18.598;2023-08-06T17:11:07;20.83;94.01
70271;SHT31;57680;54.292;18.598;2023-08-06T17:13:33;20.72;94.20
70271;SHT31;57680;54.292;18.598;2023-08-06T17:15:59;20.62;94.17
70271;SHT31;57680;54.292;18.598;2023-08-06T17:18:24;20.57;94.24
70271;SHT31;57680;54.292;18.598;2023-08-06T17:20:50;20.57;94.70
70271;SHT31;57680;54.292;18.598;2023-08-06T17:23:15;20.46;94.60
70271;SHT31;57680;54.292;18.598;2023-08-06T17:25:44;20.43;94.81
70271;SHT31;57680;54.292;18.598;2023-08-06T17:28:10;20.42;94.86
70271;SHT31;57680;54.292;18.598;2023-08-06T17:30:38;20.39;94.41
70271;SHT31;57680;54.292;18.598;2023-08-06T17:33:04;20.32;94.27
70271;SHT31;57680;54.292;18.598;2023-08-06T17:35:30;20.36;94.48
70271;SHT31;57680;54.292;18.598;2023-08-06T17:37:55;20.38;94.67
70271;SHT31;57680;54.292;18.598;2023-08-06T17:40:20;20.38;94.58
70271;SHT31;57680;54.292;18.598;2023-08-06T17:42:46;20.42;94.35
70271;SHT31;57680;54.292;18.598;2023-08-06T17:45:11;20.36;93.84
70271;SHT31;57680;54.292;18.598;2023-08-06T17:47:36;20.35;94.38
70271;SHT31;57680;54.292;18.598;2023-08-06T17:50:02;20.33;94.70
70271;SHT31;57680;54.292;18.598;2023-08-06T17:52:27;20.33;94.78
70271;SHT31;57680;54.292;18.598;2023-08-06T17:54:53;20.31;94.69
70271;SHT31;57680;54.292;18.598;2023-08-06T17:57:18;20.29;94.75
70271;SHT31;57680;54.292;18.598;2023-08-06T17:59:43;20.26;94.66
70271;SHT31;57680;54.292;18.598;2023-08-06T18:02:09;20.26;94.67
70271;SHT31;57680;54.292;18.598;2023-08-06T18:04:34;20.24;94.61
70271;SHT31;57680;54.292;18.598;2023-08-06T18:06:59;20.20;94.69
70271;SHT31;57680;54.292;18.598;2023-08-06T18:09:25;20.20;94.65
70271;SHT31;57680;54.292;18.598;2023-08-06T18:11:50;20.14;94.70
70271;SHT31;57680;54.292;18.598;2023-08-06T18:14:15;20.08;94.91
70271;SHT31;57680;54.292;18.598;2023-08-06T18:16:41;20.04;95.07
70271;SHT31;57680;54.292;18.598;2023-08-06T18:19:06;19.97;95.21
70271;SHT31;57680;54.292;18.598;2023-08-06T18:21:32;19.95;95.41
70271;SHT31;57680;54.292;18.598;2023-08-06T18:23:57;19.91;95.62
70271;SHT31;57680;54.292;18.598;2023-08-06T18:26:22;19.87;95.79
70271;SHT31;57680;54.292;18.598;2023-08-06T18:28:48;19.85;95.92
70271;SHT31;57680;54.292;18.598;2023-08-06T18:31:13;19.82;96.06
70271;SHT31;57680;54.292;18.598;2023-08-06T18:33:39;19.78;96.20
70271;SHT31;57680;54.292;18.598;2023-08-06T18:36:09;19.80;96.27
70271;SHT31;57680;54.292;18.598;2023-08-06T18:38:35;19.80;96.38
70271;SHT31;57680;54.292;18.598;2023-08-06T18:41:00;19.82;96.45
70271;SHT31;57680;54.292;18.598;2023-08-06T18:43:25;19.82;96.41
70271;SHT31;57680;54.292;18.598;2023-08-06T18:45:51;19.80;96.35
70271;SHT31;57680;54.292;18.598;2023-08-06T18:48:16;19.77;96.39
70271;SHT31;57680;54.292;18.598;2023-08-06T18:50:45;19.74;96.51
70271;SHT31;57680;54.292;18.598;2023-08-06T18:53:10;19.71;96.54
70271;SHT31;57680;54.292;18.598;2023-08-06T18:55:36;19.67;96.55
70271;SHT31;57680;54.292;18.598;2023-08-06T18:58:02;19.64;96.75
70271;SHT31;57680;54.292;18.598;2023-08-06T19:00:27;19.63;97.00
70271;SHT31;57680;54.292;18.598;2023-08-06T19:02:52;19.61;97.16
70271;SHT31;57680;54.292;18.598;2023-08-06T19:05:18;19.63;97.29
70271;SHT31;57680;54.292;18.598;2023-08-06T19:07:43;19.61;97.34
70271;SHT31;57680;54.292;18.598;2023-08-06T19:10:09;19.59;97.41
70271;SHT31;57680;54.292;18.598;2023-08-06T19:12:34;19.57;97.51
70271;SHT31;57680;54.292;18.598;2023-08-06T19:15:00;19.54;97.61
70271;SHT31;57680;54.292;18.598;2023-08-06T19:17:25;19.53;97.77
70271;SHT31;57680;54.292;18.598;2023-08-06T19:19:50;19.51;97.92
70271;SHT31;57680;54.292;18.598;2023-08-06T19:22:16;19.50;97.99
70271;SHT31;57680;54.292;18.598;2023-08-06T19:24:41;19.49;98.07
70271;SHT31;57680;54.292;18.598;2023-08-06T19:27:06;19.49;98.20
70271;SHT31;57680;54.292;18.598;2023-08-06T19:29:32;19.49;98.30
70271;SHT31;57680;54.292;18.598;2023-08-06T19:31:57;19.47;98.38
70271;SHT31;57680;54.292;18.598;2023-08-06T19:34:22;19.47;98.51
70271;SHT31;57680;54.292;18.598;2023-08-06T19:36:49;19.49;98.61
70271;SHT31;57680;54.292;18.598;2023-08-06T19:39:15;19.51;98.65
70271;SHT31;57680;54.292;18.598;2023-08-06T19:41:40;19.53;98.74
70271;SHT31;57680;54.292;18.598;2023-08-06T19:44:06;19.51;98.74
70271;SHT31;57680;54.292;18.598;2023-08-06T19:46:31;19.51;98.69
70271;SHT31;57680;54.292;18.598;2023-08-06T19:48:56;19.47;98.78
70271;SHT31;57680;54.292;18.598;2023-08-06T19:51:21;19.53;98.77
70271;SHT31;57680;54.292;18.598;2023-08-06T19:53:47;19.50;98.73
70271;SHT31;57680;54.292;18.598;2023-08-06T19:56:12;19.53;98.60
70271;SHT31;57680;54.292;18.598;2023-08-06T19:58:37;19.49;98.38
70271;SHT31;57680;54.292;18.598;2023-08-06T20:01:03;19.43;97.87
70271;SHT31;57680;54.292;18.598;2023-08-06T20:03:28;19.36;97.57
70271;SHT31;57680;54.292;18.598;2023-08-06T20:05:53;19.32;97.29
70271;SHT31;57680;54.292;18.598;2023-08-06T20:08:19;19.32;97.09
70271;SHT31;57680;54.292;18.598;2023-08-06T20:10:47;19.23;96.88
70271;SHT31;57680;54.292;18.598;2023-08-06T20:13:13;19.18;96.74
70271;SHT31;57680;54.292;18.598;2023-08-06T20:15:39;19.11;96.68
70271;SHT31;57680;54.292;18.598;2023-08-06T20:18:04;19.03;96.68
70271;SHT31;57680;54.292;18.598;2023-08-06T20:20:29;18.96;96.71
70271;SHT31;57680;54.292;18.598;2023-08-06T20:22:55;18.85;96.76
70271;SHT31;57680;54.292;18.598;2023-08-06T20:25:20;18.79;96.72
70271;SHT31;57680;54.292;18.598;2023-08-06T20:27:45;18.74;96.80
70271;SHT31;57680;54.292;18.598;2023-08-06T20:30:12;18.68;96.82
70271;SHT31;57680;54.292;18.598;2023-08-06T20:32:37;18.61;96.84
70271;SHT31;57680;54.292;18.598;2023-08-06T20:35:03;18.57;96.95